Latest Coastal Weather Observations for Cocos Island

IDW60701

Issued at 9:41 am WST Wednesday 1 June 2016 (issued every 10 minutes, with the page automatically refreshed every 10 minutes)

About coastal observations | Map of coastal stations | Coastal observations for WA | Marine services | Other Formats
Station Details ID: 200284 Name: COCOS ISLAND AIRPORT Lat: -12.19 Lon: 96.83 Height: 3.0 m
Data from the previous 72 hours. | See also: Recent months at Cocos Island
Date/Time
WST
Temp

°C
Wind Pressure Rain
since 9am
mm
Weather Cloud Vis
km
Sea
Height
m
Swell
Dir
 
Speed
knots
Gust
knots
hPa Trend Height
m
Period
s
Dir
01/09:30am 27.3 ENE 3 5 1011.0 - 4.2 - Mostly clear 10 - - - -
01/09:00am 27.1 ENE 3 4 1010.5 - 4.2 - Mostly clear 10 - - - -
01/08:30am 26.8 E 2 4 1010.0 - 4.2 - Mostly clear 10 - - - -
01/08:00am 26.1 SSE 4 4 1009.7 - 4.2 - Mostly clear 10 - - - -
01/07:30am 26.6 E 4 5 1009.9 - 4.2 - Partly cloudy 10 - - - -
01/07:05am 26.1 CALM 0 0 1009.7 - 4.2 - Partly cloudy 9 - - - -
01/07:00am 25.8 CALM 0 0 1009.6 - 4.2 - Partly cloudy 7 - - - -
01/06:34am 25.7 CALM 0 0 1009.6 - 4.2 - - 6 - - - -
01/06:30am 25.9 CALM 0 0 1009.6 - 4.2 - - 7 - - - -
01/06:29am 26.0 CALM 0 0 1009.6 - 4.2 - - 7 - - - -
01/06:12am 25.8 CALM 0 0 1009.5 - 4.2 - Partly cloudy 6 - - - -
01/06:00am 26.4 CALM 0 3 1009.5 - 4.2 - Partly cloudy 6 - - - -
01/05:35am 26.3 SE 3 4 1009.5 - 4.2 - Partly cloudy 7 - - - -
01/05:30am 26.3 SE 2 4 1009.6 - 4.2 - Partly cloudy 7 - - - -
01/05:18am 25.8 CALM 0 0 1009.6 - 4.2 - Partly cloudy 6 - - - -
01/05:00am 25.8 SE 1 3 1009.3 - 4.2 - Mostly clear 6 - - - -
01/04:00am 25.7 CALM 0 0 1009.4 - 4.2 - Partly cloudy 5 - - - -
01/03:30am 25.5 CALM 0 0 1009.7 - 4.2 - - 6 - - - -
01/03:28am 25.6 CALM 0 0 1009.8 - 4.2 - - 6 - - - -
01/03:00am 26.2 CALM 0 0 1010.2 - 4.2 - Partly cloudy 10 - - - -
01/02:44am 26.6 ESE 3 5 1010.3 - 4.2 - - 10 - - - -
01/02:30am 26.2 WSW 1 4 1010.4 - 4.2 - - 5 - - - -
01/02:00am 26.5 CALM 0 - 1010.5 - 4.2 - Partly cloudy 4 - - - -
01/01:46am 26.7 SW 4 5 1010.6 - 4.2 - Partly cloudy 6 - - - -
01/01:43am 26.7 SW 3 5 1010.6 - 4.2 - Partly cloudy 9 - - - -
01/01:30am 26.7 CALM 0 0 1010.7 - 4.2 - Cloudy 4 - - - -
01/01:22am 26.5 CALM 0 0 1010.7 - 3.8 - Cloudy 6 - - - -
01/01:00am 27.0 ESE 2 3 1010.9 - 3.6 - Partly cloudy 10 - - - -
01/12:30am 27.0 SE 3 5 1010.8 - 3.6 - - 10 - - - -
01/12:00am 27.1 SE 4 7 1010.8 - 3.6 - - 10 - - - -
 
Date/Time
WST
Temp

°C
Wind Pressure Rain
since 9am
mm
Weather Cloud Vis
km
Sea
Height
m
Swell
Dir
 
Speed
knots
Gust
knots
hPa Trend Height
m
Period
s
Dir
31/11:30pm 27.2 SSE 6 8 1010.9 - 3.6 - - 10 - - - -
31/11:00pm 27.1 SSE 6 8 1010.8 - 3.6 - - 10 - - - -
31/10:30pm 27.1 SSE 6 9 1011.0 - 3.6 - - 10 - - - -
31/10:00pm 26.7 SE 5 6 1010.8 - 3.6 - - 10 - - - -
31/09:30pm 26.7 ESE 2 3 1010.7 - 3.6 - - 8 - - - -
31/09:00pm 26.4 CALM 0 0 1010.5 - 3.6 - - 10 - - - -
31/08:30pm 26.3 CALM 0 0 1010.3 - 3.6 - - 8 - - - -
31/08:27pm 26.3 CALM 0 0 1010.2 - 3.6 - - 8 - - - -
31/08:09pm 26.5 CALM 0 0 1010.4 - 3.6 - - 6 - - - -
31/08:00pm 26.6 CALM 0 0 1010.2 - 3.6 - - 8 - - - -
31/07:30pm 26.9 S 2 4 1010.1 - 3.6 - - 7 - - - -
31/07:00pm 27.2 CALM 0 0 1010.0 - 3.6 - - 8 - - - -
31/06:30pm 27.2 CALM 0 3 1009.9 - 3.6 - Partly cloudy 7 - - - -
31/06:00pm 27.2 SSE 3 5 1009.6 - 3.6 - Partly cloudy 10 - - - -
31/05:30pm 27.4 S 5 8 1009.5 - 3.6 - - - - - - -
31/05:00pm 27.5 S 7 9 1009.0 - 3.6 - Mostly cloudy 10 - - - -
31/04:00pm 27.9 N 5 7 1009.0 - 3.6 - Mostly clear 10 - - - -
31/03:30pm 28.2 N 4 6 1008.9 - 3.6 - Mostly clear 10 - - - -
31/03:00pm 27.7 N 3 5 1009.1 - 3.6 - Mostly clear 10 - - - -
31/02:37pm 26.6 N 3 5 1009.5 - 3.4 - Mostly clear 10 - - - -
31/02:30pm 26.5 N 3 7 1009.6 - 3.4 Showers Mostly clear 5 - - - -
31/02:16pm 26.7 N 9 12 1009.9 - 0.8 Showers Mostly clear 2 - - - -
31/02:00pm 27.7 NNW 6 8 1009.9 - 0.0 - Cloudy 10 - - - -
31/01:30pm 27.5 N 11 13 1010.3 - 0.0 - Mostly clear 10 - - - -
31/01:00pm 27.2 N 11 14 1010.6 - 0.0 - Mostly clear 10 - - - -
31/12:30pm 28.7 E 10 12 1010.6 - 0.0 - Partly cloudy 10 - - - -
31/12:00pm 27.9 NNE 5 7 1010.9 - 0.0 - Partly cloudy 10 - - - -
31/11:30am 28.2 E 9 11 1010.9 - 0.0 - Mostly clear 10 - - - -
31/11:00am 27.2 E 11 14 1010.8 - 9.6 - Cloudy 10 - - - -
31/10:30am 27.0 E 10 14 1010.9 - 9.6 - Mostly clear 10 - - - -
31/10:20am 26.6 E 11 14 1010.8 - 9.6 - Partly cloudy 10 - - - -
31/10:00am 27.1 ESE 12 17 1010.7 - 9.0 Showers Mostly clear 7 - - - -
31/09:30am 27.7 ESE 8 12 1010.3 - 9.0 - Mostly clear 10 - - - -
31/09:00am 27.2 ESE 6 8 1010.0 - 9.0 - Mostly clear 10 - - - -
31/08:30am 27.5 ESE 11 14 1009.5 - 9.0 - Mostly clear 10 - - - -
31/08:00am 27.3 ESE 9 12 1009.3 - 9.0 - Mostly clear 10 - - - -
31/07:39am 27.4 SE 11 14 1009.5 - 9.0 - Partly cloudy 10 - - - -
31/07:30am 27.4 ESE 10 13 1009.6 - 9.0 - Partly cloudy 10 - - - -
31/07:20am 27.3 ESE 9 12 1009.5 - 9.0 - Partly cloudy 1 - - - -
31/07:00am 27.3 ESE 10 14 1009.3 - 9.0 - Partly cloudy 10 - - - -
31/06:30am 27.3 ESE 10 13 1009.2 - 9.0 - Partly cloudy 10 - - - -
31/06:00am 27.2 ESE 8 11 1009.0 - 9.0 - Partly cloudy 10 - - - -
31/05:30am 27.1 E 8 11 1009.0 - 9.0 - Partly cloudy 10 - - - -
31/05:00am 27.2 E 7 9 1008.9 - 9.0 - - 10 - - - -
31/04:30am 27.3 ESE 8 11 1009.2 - 9.0 - Partly cloudy 10 - - - -
31/04:00am 27.3 ESE 8 10 1009.3 - 9.0 - Partly cloudy 10 - - - -
31/03:30am 27.3 ESE 8 11 1009.5 - 9.0 - Partly cloudy 10 - - - -
31/03:00am 27.3 SE 9 12 1009.6 - 9.0 - - 10 - - - -
31/02:30am 27.3 ESE 9 12 1009.8 - 9.0 - Partly cloudy 10 - - - -
31/02:00am 27.2 ESE 8 11 1009.9 - 9.0 - Partly cloudy 10 - - - -
31/01:30am 27.3 E 7 10 1010.1 - 9.0 - Partly cloudy 10 - - - -
31/01:00am 27.2 ESE 8 10 1010.3 - 9.0 - Partly cloudy 10 - - - -
31/12:30am 27.1 ESE 8 12 1010.6 - 9.0 - - 10 - - - -
31/12:00am 26.8 ESE 8 12 1010.9 - 9.0 - - 10 - - - -
 
Date/Time
WST
Temp

°C
Wind Pressure Rain
since 9am
mm
Weather Cloud Vis
km
Sea
Height
m
Swell
Dir
 
Speed
knots
Gust
knots
hPa Trend Height
m
Period
s
Dir
30/11:30pm 26.7 ESE 8 10 1011.0 - 9.0 - - 10 - - - -
30/11:00pm 26.4 ESE 7 9 1011.1 - 9.0 - - 10 - - - -
30/10:30pm 26.1 E 7 9 1011.4 - 9.0 - - 10 - - - -
30/10:16pm 25.9 ESE 5 7 1011.4 - 8.8 - Partly cloudy 6 - - - -
30/10:00pm 25.3 ESE 5 7 1011.5 - 8.2 - Partly cloudy 10 - - - -
30/09:51pm 25.2 ESE 5 8 1011.5 - 8.2 - Partly cloudy 9 - - - -
30/09:38pm 25.3 ESE 7 10 1011.4 - 7.8 - Partly cloudy 6 - - - -
30/09:30pm 25.5 ESE 8 11 1011.3 - 7.2 - Partly cloudy 10 - - - -
30/09:00pm 26.2 ESE 7 10 1011.1 - 6.8 - Partly cloudy 10 - - - -
30/08:30pm 26.0 ESE 5 7 1010.8 - 6.6 - Partly cloudy 10 - - - -
30/08:13pm 25.6 E 6 9 1010.7 - 6.6 - Partly cloudy 10 - - - -
30/08:00pm 25.7 E 10 14 1010.3 - 6.2 - Cloudy 5 - - - -
30/07:40pm 25.3 E 16 19 1010.2 - 5.6 - Partly cloudy 6 - - - -
30/07:30pm 26.1 ESE 7 13 1010.4 - 5.2 - Partly cloudy 10 - - - -
30/07:15pm 26.0 SE 8 10 1010.2 - 5.2 - Partly cloudy 9 - - - -
30/07:00pm 25.9 SE 7 10 1010.2 - 5.2 - Partly cloudy 4 - - - -
30/06:58pm 25.8 SE 8 10 1010.2 - 5.2 - Partly cloudy 3 - - - -
30/06:47pm 26.4 ESE 12 15 1010.1 - 3.4 - Partly cloudy 5 - - - -
30/06:30pm 27.5 NNE 9 11 1009.7 - 1.8 - Partly cloudy 10 - - - -
30/06:01pm 27.6 NE 9 11 1009.6 - 1.8 - Partly cloudy 10 - - - -
30/06:00pm 27.6 NE 9 11 1009.6 - 1.8 - Partly cloudy 10 - - - -
30/05:37pm 27.2 NE 10 14 1009.6 - 0.8 - Partly cloudy 5 - - - -
30/05:30pm 28.2 N 6 10 1009.5 - 0.2 - Partly cloudy 10 - - - -
30/05:00pm 28.3 ENE 7 10 1009.2 - 0.2 - Cloudy 10 - - - -
30/04:30pm 28.2 NE 9 11 1009.4 - 0.2 - Mostly clear 10 - - - -
30/04:00pm 28.3 ENE 10 14 1009.2 - 0.2 - Mostly clear 10 - - - -
30/03:30pm 28.3 NE 14 18 1009.2 - 0.2 - Mostly clear 10 - - - -
30/03:00pm 30.2 ENE 9 13 1009.4 - 0.2 - Partly cloudy 10 - - - -
30/02:30pm 30.0 ENE 10 13 1009.5 - 0.2 - Mostly clear 10 - - - -
30/02:00pm 28.7 NE 12 15 1009.7 - 0.2 - Mostly cloudy 10 - - - -
30/01:30pm 28.7 E 13 17 1010.1 - 0.2 - Partly cloudy 10 - - - -
30/01:00pm 29.3 ENE 11 14 1010.3 - 0.2 - Mostly clear 10 - - - -
30/12:30pm 28.8 ENE 13 17 1010.4 - 0.2 - Partly cloudy 10 - - - -
30/12:00pm 28.6 ENE 9 13 1010.9 - 0.2 - Partly cloudy 10 - - - -
30/11:30am 28.1 E 13 15 1011.1 - 0.2 - Mostly clear 10 - - - -
30/11:00am 27.5 E 13 15 1011.1 - 23.4 - Cloudy 6 - - - -
30/10:30am 28.4 E 7 10 1011.2 - 23.0 - Partly cloudy 10 - - - -
30/10:00am 28.1 E 7 10 1011.2 - 23.0 - Partly cloudy 10 - - - -
30/09:30am 27.7 E 8 11 1010.9 - 23.0 - Partly cloudy 10 - - - -
30/09:00am 26.8 E 12 16 1010.7 - 23.0 Showers Partly cloudy 10 - - - -
30/08:30am 27.5 ESE 7 9 1010.5 - 23.0 Showers Mostly cloudy 10 - - - -
30/08:00am 27.3 ESE 9 12 1010.0 - 23.0 - Mostly cloudy 9 - - - -
30/07:30am 27.2 E 7 9 1009.9 - 23.0 - Partly cloudy 10 - - - -
30/07:06am 27.1 ESE 9 13 1009.5 - 23.0 - Partly cloudy 10 - - - -
30/07:00am 27.0 ESE 11 13 1009.5 - 23.0 - Partly cloudy 10 - - - -
30/06:40am 26.7 NE 14 19 1009.4 - 21.0 - Partly cloudy 6 - - - -
30/06:30am 26.7 ENE 14 17 1009.4 - 20.4 - Partly cloudy 10 - - - -
30/06:00am 27.2 SE 10 13 1009.3 - 20.4 - Partly cloudy 10 - - - -
30/05:44am 27.1 SE 13 16 1009.4 - 20.4 - Partly cloudy 10 - - - -
30/05:30am 27.1 SE 12 18 1009.3 - 20.4 - Partly cloudy 10 - - - -
30/05:06am 27.2 ESE 9 13 1009.2 - 20.4 - Partly cloudy 10 - - - -
30/05:00am 27.4 ESE 9 11 1009.1 - 20.4 - Cloudy 10 - - - -
30/04:30am 27.4 ESE 9 12 1009.2 - 20.4 - Partly cloudy 10 - - - -
30/04:00am 27.1 SE 9 11 1009.4 - 20.4 - Partly cloudy 10 - - - -
30/03:41am 26.8 ESE 8 12 1009.5 - 20.4 - Partly cloudy 10 - - - -
30/03:30am 26.6 SE 10 12 1009.7 - 20.4 - Partly cloudy 0 - - - -
30/03:22am 26.5 ESE 10 13 1009.8 - 20.4 - Partly cloudy 0 - - - -
30/03:00am 26.3 ESE 9 13 1010.0 - 20.4 - Partly cloudy 10 - - - -
30/02:30am 26.7 ESE 8 15 1010.2 - 20.2 - Partly cloudy 10 - - - -
30/02:00am 26.8 ESE 8 11 1010.2 - 20.2 - Cloudy 9 - - - -
30/01:49am 26.6 ESE 6 9 1010.5 - 20.2 - Partly cloudy 10 - - - -
30/01:30am 25.4 SE 6 9 1010.7 - 20.0 - Partly cloudy 2 - - - -
30/01:16am 24.5 NE 1 5 1011.0 - 16.8 - Partly cloudy 0.6 - - - -
30/01:00am 25.2 E 10 13 1011.2 - 6.4 - Partly cloudy 1 - - - -
30/12:48am 25.9 ENE 14 19 1011.1 - 0.2 - Partly cloudy 6 - - - -
30/12:30am 27.7 ESE 9 12 1010.9 - 0.2 - Partly cloudy 10 - - - -
30/12:00am 26.8 SE 11 16 1011.2 - 0.2 - Partly cloudy 10 - - - -
 
Date/Time
WST
Temp

°C
Wind Pressure Rain
since 9am
mm
Weather Cloud Vis
km
Sea
Height
m
Swell
Dir
 
Speed
knots
Gust
knots
hPa Trend Height
m
Period
s
Dir
29/11:30pm 27.2 SE 10 14 1011.1 - 0.2 - Partly cloudy 10 - - - -
29/11:00pm 26.9 ESE 11 14 1011.4 - 0.2 - Mostly cloudy 10 - - - -
29/10:30pm 27.9 ESE 10 13 1011.5 - 0.2 - Partly cloudy 10 - - - -
29/10:00pm 27.9 ESE 9 12 1011.2 - 0.2 - Partly cloudy 10 - - - -
29/09:30pm 27.8 ESE 11 13 1011.0 - 0.2 - Partly cloudy 10 - - - -
29/09:00pm 27.8 ESE 9 12 1010.8 - 0.2 - Partly cloudy 10 - - - -
29/08:30pm 27.8 SE 11 13 1010.3 - 0.2 - - 10 - - - -
29/08:00pm 27.9 ESE 11 13 1009.9 - 0.2 - - 10 - - - -
29/07:30pm 27.9 ESE 11 16 1009.9 - 0.2 - Partly cloudy 10 - - - -
29/07:00pm 28.2 ESE 8 11 1009.9 - 0.2 - Partly cloudy 10 - - - -
29/06:30pm 28.4 E 8 11 1009.8 - 0.2 - - 10 - - - -
29/06:00pm 28.5 E 9 11 1009.6 - 0.2 - Partly cloudy 10 - - - -
29/05:30pm 28.8 E 8 12 1009.6 - 0.2 - Partly cloudy 10 - - - -
29/05:00pm 28.8 E 8 11 1009.4 - 0.2 - Mostly clear 10 - - - -
29/04:30pm 28.6 ESE 10 13 1009.6 - 0.2 - Partly cloudy 10 - - - -
29/04:00pm 28.7 ESE 11 15 1009.6 - 0.2 - Partly cloudy 10 - - - -
29/03:30pm 28.7 ESE 11 15 1009.5 - 0.2 - Partly cloudy 10 - - - -
29/03:00pm 28.7 ESE 9 13 1009.7 - 0.2 - Partly cloudy 10 - - - -
29/02:30pm 28.7 ESE 10 13 1010.0 - 0.2 - - 10 - - - -
29/02:00pm 28.6 ESE 11 15 1010.2 - 0.2 - Mostly clear 10 - - - -
29/01:30pm 28.4 ESE 12 16 1010.8 - 0.2 - Partly cloudy 10 - - - -
29/01:00pm 28.5 SE 12 16 1011.2 - 0.2 - Partly cloudy 10 - - - -
29/12:30pm 28.7 ESE 12 16 1011.8 - 0.2 - Partly cloudy 10 - - - -
29/12:00pm 29.1 ESE 10 14 1011.9 - 0.2 - Partly cloudy 10 - - - -
29/11:30am 28.6 ESE 12 15 1012.0 - 0.2 - Partly cloudy 10 - - - -

Other Formats:

Comma delimited format used in spreadsheet applications
http://www.bom.gov.au/fwo/IDW60701/IDW60701.96996.axf

JavaScript Object Notation format (JSON) in row-major order
http://www.bom.gov.au/fwo/IDW60701/IDW60701.96996.json